Cloud cover More information Parkstad Weather Satellite


Precipitateradar More information Parkstad Rain Snow Radar


Thunderstorms More information Parkstad Lighntning


24/7 Weathercamera More information Parkstad Weathercam


Natural Fire Risk
CBI







The weather does not pose an immediate danger in Parkstad.    There are no Weather-warnings

Select another period ( hide this area )

Units Period Custom range Directly to
Metric English Both
Daily Weekly Monthly Yearly
use both date-selectors for a custom range
previous Day
With this date

WeatherUnderground graphs for this period ( click here ) Loading the graph can take up to a minute!


Daily Summary for Thursday 29 October 2020
Time Temp. ( °C ) Dew pt. ( °C ) Wind ( km/h ) from Gust ( km/h ) Pressure ( hPa ) Humid.( % ) Rainrate ( cm ) Solar ( W/m2 )
High11,7 10,2 45,0 WSW ( 3616/5431 ) 45,0 1015,9 97 1,52 207
Average10,2 8,7 22,6 WSW #150/240 25,3 1012,4 91 1,10 94 #114/240
Low8,7 6,8 10,0   11,0 1005,8 85 -  
Daily Tabular details for Thursday 29 October 2020
Time Temp. ( °C ) Dew pt. ( °C ) Wind ( km/h ) from Gust ( km/h ) Pressure ( hPa ) Humid.( % ) Rainrate ( cm ) Solar ( W/m2 )
00:04 9,7 9,2 24,0 SW 32,0 1005,8 97 0,51 -
00:09 9,7 9,1 31,0 SW 31,0 1005,8 96 0,51 -
00:14 9,7 9,1 32,0 SW 32,0 1006,1 96 0,76 -
00:19 9,6 9,0 23,0 SW 29,0 1006,1 96 0,76 -
00:24 9,7 9,1 31,0 SW 31,0 1006,1 96 0,51 -
00:29 9,7 8,9 24,0 SW 35,0 1006,1 95 0,51 -
00:34 9,7 8,9 21,0 SW 35,0 1006,1 95 0,51 -
00:39 9,7 8,9 35,0 WSW 35,0 1006,1 95 0,51 -
00:44 9,7 8,9 31,0 SW 35,0 1006,4 95 0,51 -
00:49 9,7 8,9 23,0 SW 35,0 1006,4 95 0,25 -
00:54 9,7 8,9 35,0 WSW 35,0 1006,4 95 0,25 -
00:59 9,7 8,8 34,0 WSW 35,0 1006,4 94 0,25 -
01:04 9,7 8,8 29,0 WSW 34,0 1006,4 94 0,25 -
01:09 9,8 8,7 29,0 WSW 29,0 1006,4 93 0,25 -
01:14 9,8 8,7 29,0 WSW 31,0 1006,8 93 0,25 -
01:19 9,8 8,7 27,0 WSW 29,0 1006,8 93 - -
01:24 9,8 8,7 27,0 WSW 29,0 1006,8 93 - -
01:29 9,8 8,7 27,0 WSW 32,0 1007,1 93 - -
01:34 9,8 8,6 24,0 SW 24,0 1007,1 92 - -
01:39 9,8 8,6 34,0 WSW 37,0 1007,1 92 - -
01:44 9,8 8,6 31,0 WSW 31,0 1007,1 92 - -
01:49 9,8 8,6 24,0 SW 37,0 1007,1 92 - -
01:54 9,9 8,7 27,0 WSW 27,0 1007,1 92 - -
01:59 9,9 8,7 34,0 WSW 34,0 1007,5 92 - -
02:04 9,9 8,7 24,0 WSW 24,0 1007,5 92 - -
02:09 9,9 8,7 34,0 SW 34,0 1007,5 92 - -
02:14 9,9 8,5 23,0 WSW 31,0 1007,5 91 - -
02:19 9,9 8,5 34,0 WSW 34,0 1007,5 91 - -
02:24 9,9 8,3 29,0 SW 29,0 1007,5 90 - -
02:29 9,9 8,3 24,0 WSW 27,0 1007,5 90 - -
02:34 9,9 8,3 29,0 WSW 29,0 1007,5 90 - -
02:39 9,9 8,3 37,0 WSW 45,0 1007,5 90 - -
02:44 9,9 8,5 31,0 SW 45,0 1007,8 91 - -
02:49 9,9 8,5 45,0 WSW 45,0 1007,8 92 0,25 -
02:54 9,7 8,5 24,0 WSW 45,0 1007,8 92 0,51 -
02:59 9,6 8,5 26,0 WSW 26,0 1007,8 93 0,51 -
03:04 9,5 8,4 29,0 WSW 31,0 1007,5 93 0,51 -
03:09 9,5 8,4 29,0 WSW 31,0 1007,5 93 0,51 -
03:14 9,5 8,4 23,0 SW 27,0 1007,8 93 0,51 -
03:19 9,5 8,4 34,0 WSW 34,0 1007,8 93 0,51 -
03:24 9,5 8,4 29,0 SW 29,0 1007,8 93 0,51 -
03:29 9,5 8,4 34,0 WSW 34,0 1008,1 93 0,51 -
03:34 9,5 8,3 29,0 SW 29,0 1008,1 92 0,51 -
03:39 9,5 8,3 29,0 SW 34,0 1008,1 92 0,51 -
03:44 9,4 8,0 32,0 WSW 32,0 1008,1 91 0,51 -
03:49 9,4 8,0 23,0 WSW 26,0 1008,1 91 0,25 -
03:54 9,4 8,0 26,0 WSW 32,0 1008,1 91 0,25 -
03:59 9,3 8,1 34,0 WSW 34,0 1008,1 92 - -
04:04 9,3 8,1 23,0 WSW 29,0 1008,1 92 - -
04:09 9,3 8,1 27,0 WSW 34,0 1008,1 92 - -
04:14 9,3 8,1 21,0 WSW 27,0 1008,1 92 - -
04:19 9,3 8,1 27,0 WSW 27,0 1008,5 92 - -
04:24 9,2 8,0 20,0 WSW 27,0 1008,5 92 - -
04:29 9,2 8,0 23,0 WSW 23,0 1008,5 92 - -
04:34 9,2 8,0 18,0 WSW 21,0 1008,5 92 - -
04:39 9,2 8,0 18,0 WSW 23,0 1008,5 92 - -
04:44 9,2 8,0 23,0 WSW 23,0 1008,8 92 - -
04:49 9,1 7,9 18,0 WSW 23,0 1008,8 92 - -
04:54 9,1 7,7 23,0 WSW 23,0 1008,8 91 - -
04:59 8,9 7,5 21,0 WSW 26,0 1009,1 91 - -
05:04 8,9 7,5 21,0 WSW 21,0 1009,1 91 - -
05:09 8,9 7,5 26,0 WSW 26,0 1009,1 91 - -
05:14 8,9 7,6 18,0 WSW 21,0 1009,1 92 - -
05:19 8,8 7,6 21,0 WSW 24,0 1009,1 92 - -
05:24 8,8 7,6 26,0 WSW 27,0 1009,1 92 - -
05:29 8,8 7,6 27,0 WSW 27,0 1009,5 92 - -
05:34 8,8 7,6 21,0 WSW 26,0 1009,5 92 - -
05:39 8,9 7,7 29,0 WSW 32,0 1009,5 92 - -
05:44 8,9 7,7 24,0 WSW 26,0 1009,8 92 - -
05:49 8,9 7,7 32,0 SW 32,0 1009,8 92 - -
05:54 8,8 7,6 23,0 SW 24,0 1009,8 92 - -
05:59 8,8 7,6 24,0 WSW 29,0 1010,2 92 - -
06:04 8,8 7,6 26,0 WSW 26,0 1010,2 92 - -
06:09 8,9 7,6 21,0 WSW 21,0 1010,2 92 - -
06:14 8,9 7,5 21,0 SW 26,0 1010,2 91 - -
06:19 8,9 7,5 26,0 WSW 26,0 1010,2 91 - -
06:24 8,8 7,4 21,0 WSW 26,0 1010,2 91 - -
06:29 8,9 7,4 24,0 WSW 29,0 1010,5 91 - -
06:34 8,9 7,3 21,0 SW 29,0 1010,5 90 - -
06:39 8,9 7,3 31,0 WSW 31,0 1010,5 90 - -
06:44 8,9 7,3 20,0 WSW 19,0 1010,8 90 - -
06:49 8,9 7,3 23,0 WSW 31,0 1010,8 90 - -
06:54 8,9 7,3 21,0 WSW 21,0 1010,8 90 - -
06:59 8,8 7,2 20,0 WSW 23,0 1011,2 90 - -
07:04 8,8 7,1 24,0 WSW 24,0 1011,2 89 - -
07:09 8,8 7,1 24,0 WSW 24,0 1011,2 89 - -
07:14 8,8 7,1 24,0 WSW 26,0 1011,2 89 - -
07:19 8,8 7,1 24,0 WSW 24,0 1011,2 89 - -
07:24 8,8 7,1 24,0 WSW 26,0 1011,2 89 - -
07:29 8,7 7,0 26,0 WSW 26,0 1011,9 89 - 5
07:34 8,7 7,0 21,0 WSW 23,0 1011,9 89 - 7
07:39 8,7 7,0 26,0 WSW 26,0 1011,9 89 - 9
07:44 8,7 6,8 24,0 WSW 24,0 1012,2 88 - 14
07:49 8,7 6,8 20,0 WSW 24,0 1012,2 88 - 16
07:54 8,7 7,0 21,0 WSW 24,0 1012,2 89 - 35
07:59 8,7 7,0 18,0 SW 24,0 1012,5 89 - 33
08:04 8,7 7,0 26,0 WSW 27,0 1012,5 89 - 40
08:09 8,8 7,1 20,0 WSW 27,0 1012,5 89 - 40
08:14 8,8 7,1 29,0 WSW 29,0 1012,5 89 - 44
08:19 8,8 7,1 21,0 WSW 24,0 1012,5 89 - 62
08:24 8,9 7,2 21,0 WSW 29,0 1012,5 89 - 74
08:29 9,0 7,3 26,0 WSW 26,0 1012,9 89 - 81
08:34 9,2 7,3 24,0 WSW 24,0 1012,9 88 - 84
08:39 9,2 7,3 26,0 WSW 26,0 1012,9 88 - 88
08:44 9,3 7,3 27,0 WSW 27,0 1012,9 88 - 70
08:49 9,3 7,2 32,0 WSW 32,0 1012,9 87 - 97
08:54 9,4 7,3 20,0 SW 31,0 1012,9 87 - 121
08:59 9,5 7,4 31,0 WSW 31,0 1012,9 87 - 125
09:04 9,6 7,5 23,0 WSW 31,0 1012,9 87 - 116
09:09 9,6 7,5 20,0 WSW 31,0 1012,9 87 - 116
09:14 9,6 7,5 16,0 WSW 31,0 1013,2 87 - 134
09:19 9,7 7,6 23,0 WSW 26,0 1013,2 87 - 132
09:24 9,7 7,6 21,0 WSW 21,0 1013,2 87 - 123
09:29 9,7 7,6 24,0 WSW 26,0 1013,6 87 - 123
09:34 9,7 7,6 20,0 WSW 21,0 1013,6 87 - 104
09:39 9,8 7,7 24,0 WSW 24,0 1013,6 87 - 104
09:44 9,8 7,7 18,0 WSW 21,0 1013,9 87 - 111
09:49 9,8 7,7 23,0 WSW 23,0 1013,9 87 - 114
09:54 9,9 7,8 16,0 WSW 18,0 1013,9 87 - 109
09:59 9,9 7,8 23,0 WSW 26,0 1013,9 87 - 109
10:04 9,9 7,8 23,0 WSW 29,0 1013,9 87 - 116
10:09 10,1 8,0 20,0 WSW 19,0 1013,9 87 - 123
10:14 10,1 8,0 29,0 WSW 29,0 1014,2 87 - 130
10:19 10,2 8,1 18,0 WSW 18,0 1014,2 87 - 130
10:24 10,3 8,2 20,0 WSW 19,0 1014,2 87 - 128
10:29 10,4 8,3 24,0 WSW 24,0 1014,6 87 - 125
10:34 10,4 8,3 26,0 WSW 26,0 1014,6 87 - 144
10:39 10,4 8,3 27,0 WSW 27,0 1014,6 87 - 162
10:44 10,6 8,5 20,0 WSW 27,0 1014,6 87 - 163
10:49 10,6 8,5 20,0 WSW 27,0 1014,6 87 - 165
10:54 10,7 8,6 23,0 SW 27,0 1014,6 87 - 188
10:59 10,8 8,7 26,0 WSW 27,0 1014,9 87 - 188
11:04 10,9 8,6 23,0 WSW 27,0 1014,9 86 - 178
11:09 11,1 8,8 24,0 SW 24,0 1014,9 86 - 183
11:14 11,1 8,8 31,0 WSW 31,0 1014,9 86 - 181
11:19 11,1 8,8 32,0 WSW 32,0 1014,9 86 - 207
11:24 11,2 8,9 23,0 WSW 24,0 1014,9 86 - 207
11:29 11,2 8,9 32,0 WSW 32,0 1015,2 86 - 186
11:34 11,3 9,0 27,0 WSW 31,0 1015,2 86 - 160
11:39 11,2 8,9 20,0 WSW 31,0 1015,2 86 - 155
11:44 11,1 8,8 31,0 WSW 31,0 1015,2 86 - 148
11:49 11,1 9,0 18,0 WSW 31,0 1015,2 87 - 153
11:54 11,2 9,1 20,0 WSW 23,0 1015,2 87 - 174
11:59 11,2 9,1 14,0 WSW 24,0 1015,2 87 - 176
12:04 11,3 9,1 18,0 WSW 18,0 1015,2 87 - 171
12:09 11,3 9,0 24,0 WSW 24,0 1015,2 86 - 160
12:14 11,3 9,2 21,0 WSW 24,0 1015,2 87 - 142
12:19 11,4 9,3 20,0 WSW 23,0 1015,2 87 - 171
12:24 11,4 9,5 23,0 West 23,0 1015,2 88 - 172
12:29 11,4 9,5 23,0 WSW 23,0 1015,2 88 - 178
12:34 11,6 9,5 14,0 WSW 23,0 1015,2 87 - 141
12:39 11,6 9,5 23,0 WSW 23,0 1015,2 87 - 172
12:44 11,6 9,5 21,0 WSW 23,0 1015,2 87 - 158
12:49 11,6 9,5 21,0 WSW 23,0 1015,2 87 - 141
12:54 11,6 9,5 16,0 WSW 23,0 1015,2 87 - 113
12:59 11,6 9,5 20,0 WSW 19,0 1015,6 87 - 113
13:04 11,6 9,5 21,0 WSW 21,0 1015,6 87 - 104
13:09 11,6 9,3 20,0 SW 19,0 1015,6 86 - 98
13:14 11,6 9,3 20,0 SW 21,0 1015,6 86 - 97
13:19 11,6 9,3 23,0 WSW 23,0 1015,6 86 - 116
13:24 11,6 9,3 20,0 WSW 23,0 1015,6 86 - 116
13:29 11,6 9,3 21,0 WSW 21,0 1015,6 86 - 104
13:34 11,6 9,3 20,0 WSW 21,0 1015,6 86 - 72
13:39 11,6 9,3 26,0 WSW 26,0 1015,6 86 - 70
13:44 11,6 9,3 23,0 WSW 26,0 1015,6 86 - 76
13:49 11,6 9,3 29,0 WSW 29,0 1015,6 86 - 93
13:54 11,6 9,3 23,0 WSW 26,0 1015,6 86 - 107
13:59 11,6 9,2 21,0 WSW 29,0 1015,6 85 - 105
14:04 11,7 9,3 18,0 WSW 21,0 1015,6 85 - 91
14:09 11,7 9,3 26,0 SW 26,0 1015,6 85 - 76
14:14 11,7 9,3 24,0 WSW 24,0 1015,6 85 - 79
14:19 11,7 9,3 21,0 SW 26,0 1015,6 85 - 79
14:24 11,7 9,3 21,0 WSW 26,0 1015,6 85 - 70
14:29 11,7 9,4 24,0 WSW 24,0 1015,6 86 - 69
14:34 11,6 9,3 26,0 SW 26,0 1015,6 86 - 60
14:39 11,6 9,5 20,0 SW 19,0 1015,6 87 - 54
14:44 11,6 9,7 26,0 WSW 26,0 1015,6 88 - 51
14:49 11,4 9,5 24,0 WSW 24,0 1015,6 88 - 47
14:54 11,4 9,5 20,0 WSW 24,0 1015,6 88 - 46
14:59 11,4 9,7 14,0 WSW 24,0 1015,9 89 0,25 56
15:04 11,4 9,7 14,0 WSW 24,0 1015,9 89 0,25 58
15:09 11,4 9,7 14,0 SW 18,0 1015,9 89 0,25 54
15:14 11,3 9,7 11,0 SW 18,0 1015,9 90 0,25 46
15:19 11,3 9,7 14,0 WSW 16,0 1015,9 90 0,25 39
15:24 11,2 9,6 16,0 WSW 18,0 1015,9 90 0,51 37
15:29 11,2 9,8 10,0 SW 15,0 1015,9 91 0,51 32
15:34 11,2 9,8 18,0 SW 18,0 1015,9 91 0,51 32
15:39 11,2 9,8 13,0 SW 18,0 1015,9 92 0,51 32
15:44 11,1 9,8 13,0 SW 18,0 1015,9 92 0,51 26
15:49 11,1 10,0 11,0 SW 18,0 1015,9 93 0,51 21
15:54 11,1 10,0 13,0 SW 18,0 1015,9 93 0,51 23
15:59 11,1 10,0 13,0 SSW 16,0 1015,9 93 0,51 26
16:04 10,9 10,0 16,0 SW 16,0 1015,6 94 0,51 26
16:09 10,9 10,0 16,0 SW 16,0 1015,6 94 0,51 26
16:14 10,9 10,0 14,0 SSW 16,0 1015,6 94 0,51 23
16:19 10,9 10,1 20,0 SW 19,0 1015,6 95 0,51 21
16:24 10,9 10,1 18,0 SW 18,0 1015,6 95 0,51 19
16:29 10,9 10,1 14,0 SW 19,0 1015,6 95 0,51 14
16:34 10,8 10,0 14,0 SW 15,0 1015,6 95 0,51 12
16:39 10,8 10,0 14,0 SW 19,0 1015,6 95 0,51 9
16:44 10,8 10,2 10,0 SW 11,0 1015,6 96 0,51 7
16:49 10,8 10,2 20,0 SW 19,0 1015,6 96 0,51 7
16:54 10,7 10,1 16,0 SW 16,0 1015,6 96 0,51 5
16:59 10,7 10,1 16,0 SW 19,0 1015,6 96 0,51 -
17:04 10,7 10,1 16,0 SW 16,0 1015,6 96 0,51 -
17:09 10,7 10,1 14,0 SSW 16,0 1015,6 96 0,51 -
17:14 10,7 10,1 14,0 SW 16,0 1015,6 96 0,51 -
17:19 10,7 10,1 14,0 SW 16,0 1015,6 96 0,51 -
17:24 10,7 10,1 20,0 SW 19,0 1015,6 96 0,51 -
17:29 10,7 10,1 16,0 SW 19,0 1015,6 96 0,51 -
17:34 10,7 9,9 16,0 SW 16,0 1015,2 95 0,51 -
17:39 10,6 9,8 14,0 SW 19,0 1015,2 95 0,51 -
17:44 10,6 9,8 13,0 SW 16,0 1015,6 95 0,51 -
17:49 10,7 9,9 16,0 SW 16,0 1015,6 95 0,51 -
17:54 10,7 9,9 16,0 SW 18,0 1015,6 95 0,25 -
17:59 10,7 9,9 18,0 SW 19,0 1015,6 95 0,25 -
18:04 10,7 9,9 20,0 SW 19,0 1015,2 95 0,51 -
18:09 10,7 9,9 18,0 SW 19,0 1015,2 95 0,51 -
18:14 10,7 9,9 18,0 SW 19,0 1015,2 95 0,51 -
18:19 10,7 9,9 16,0 SSW 19,0 1014,9 95 0,51 -
18:24 10,7 9,9 14,0 SW 19,0 1014,9 95 0,51 -
18:29 10,7 9,9 21,0 SSW 21,0 1014,9 95 0,25 -
18:34 10,7 9,9 20,0 SW 19,0 1014,9 95 0,25 -
18:39 10,7 9,9 14,0 SW 21,0 1014,9 95 0,25 -
18:44 10,7 9,9 16,0 SW 16,0 1014,9 95 0,25 -
18:49 10,7 9,9 26,0 SW 26,0 1014,9 95 0,51 -
18:54 10,8 10,0 20,0 SW 26,0 1014,9 95 0,51 -
18:59 10,8 10,0 27,0 SW 27,0 1014,9 95 0,51 -
19:04 10,8 10,0 20,0 SW 19,0 1014,9 95 0,51 -
19:09 10,8 10,0 21,0 SW 27,0 1014,9 95 0,51 -
19:14 10,8 10,0 20,0 SW 21,0 1014,9 95 0,51 -
19:19 10,7 10,1 18,0 SW 21,0 1014,9 96 0,76 -
19:24 10,7 10,1 23,0 SW 23,0 1014,9 96 0,76 -
19:29 10,7 10,1 23,0 SW 23,0 1014,9 96 1,02 -
19:34 10,7 10,1 26,0 SW 26,0 1014,9 96 1,02 -
19:39 10,7 10,1 21,0 SW 31,0 1014,9 96 1,27 -
19:44 10,7 10,1 21,0 SW 26,0 1014,9 96 1,27 -
19:49 10,7 10,1 27,0 SW 27,0 1014,9 96 1,52 -
19:54 10,7 10,1 20,0 SW 21,0 1014,9 96 1,52 -
19:59 10,7 10,1 24,0 SW 24,0 1014,9 96 1,52 -
Daily Summary for Thursday 29 October 2020
Time Temp. ( °C ) Dew pt. ( °C ) Wind ( km/h ) from Gust ( km/h ) Pressure ( hPa ) Humid.( % ) Rainrate ( cm ) Solar ( W/m2 )
High11,7 10,2 45,0 WSW ( 3616/5431 ) 45,0 1015,9 97 1,52 207
Average10,2 8,7 22,6 WSW #150/240 25,3 1012,4 91 1,10 94 #114/240
Low8,7 6,8 10,0   11,0 1005,8 85 -  
Daily Tabular details for Thursday 29 October 2020
Time Temp. ( °C ) Dew pt. ( °C ) Wind ( km/h ) from Gust ( km/h ) Pressure ( hPa ) Humid.( % ) Rainrate ( cm ) Solar ( W/m2 )
00:04 9,7 9,2 24,0 SW 32,0 1005,8 97 0,51 -
00:09 9,7 9,1 31,0 SW 31,0 1005,8 96 0,51 -
00:14 9,7 9,1 32,0 SW 32,0 1006,1 96 0,76 -
00:19 9,6 9,0 23,0 SW 29,0 1006,1 96 0,76 -
00:24 9,7 9,1 31,0 SW 31,0 1006,1 96 0,51 -
00:29 9,7 8,9 24,0 SW 35,0 1006,1 95 0,51 -
00:34 9,7 8,9 21,0 SW 35,0 1006,1 95 0,51 -
00:39 9,7 8,9 35,0 WSW 35,0 1006,1 95 0,51 -
00:44 9,7 8,9 31,0 SW 35,0 1006,4 95 0,51 -
00:49 9,7 8,9 23,0 SW 35,0 1006,4 95 0,25 -
00:54 9,7 8,9 35,0 WSW 35,0 1006,4 95 0,25 -
00:59 9,7 8,8 34,0 WSW 35,0 1006,4 94 0,25 -
01:04 9,7 8,8 29,0 WSW 34,0 1006,4 94 0,25 -
01:09 9,8 8,7 29,0 WSW 29,0 1006,4 93 0,25 -
01:14 9,8 8,7 29,0 WSW 31,0 1006,8 93 0,25 -
01:19 9,8 8,7 27,0 WSW 29,0 1006,8 93 - -
01:24 9,8 8,7 27,0 WSW 29,0 1006,8 93 - -
01:29 9,8 8,7 27,0 WSW 32,0 1007,1 93 - -
01:34 9,8 8,6 24,0 SW 24,0 1007,1 92 - -
01:39 9,8 8,6 34,0 WSW 37,0 1007,1 92 - -
01:44 9,8 8,6 31,0 WSW 31,0 1007,1 92 - -
01:49 9,8 8,6 24,0 SW 37,0 1007,1 92 - -
01:54 9,9 8,7 27,0 WSW 27,0 1007,1 92 - -
01:59 9,9 8,7 34,0 WSW 34,0 1007,5 92 - -
02:04 9,9 8,7 24,0 WSW 24,0 1007,5 92 - -
02:09 9,9 8,7 34,0 SW 34,0 1007,5 92 - -
02:14 9,9 8,5 23,0 WSW 31,0 1007,5 91 - -
02:19 9,9 8,5 34,0 WSW 34,0 1007,5 91 - -
02:24 9,9 8,3 29,0 SW 29,0 1007,5 90 - -
02:29 9,9 8,3 24,0 WSW 27,0 1007,5 90 - -
02:34 9,9 8,3 29,0 WSW 29,0 1007,5 90 - -
02:39 9,9 8,3 37,0 WSW 45,0 1007,5 90 - -
02:44 9,9 8,5 31,0 SW 45,0 1007,8 91 - -
02:49 9,9 8,5 45,0 WSW 45,0 1007,8 92 0,25 -
02:54 9,7 8,5 24,0 WSW 45,0 1007,8 92 0,51 -
02:59 9,6 8,5 26,0 WSW 26,0 1007,8 93 0,51 -
03:04 9,5 8,4 29,0 WSW 31,0 1007,5 93 0,51 -
03:09 9,5 8,4 29,0 WSW 31,0 1007,5 93 0,51 -
03:14 9,5 8,4 23,0 SW 27,0 1007,8 93 0,51 -
03:19 9,5 8,4 34,0 WSW 34,0 1007,8 93 0,51 -
03:24 9,5 8,4 29,0 SW 29,0 1007,8 93 0,51 -
03:29 9,5 8,4 34,0 WSW 34,0 1008,1 93 0,51 -
03:34 9,5 8,3 29,0 SW 29,0 1008,1 92 0,51 -
03:39 9,5 8,3 29,0 SW 34,0 1008,1 92 0,51 -
03:44 9,4 8,0 32,0 WSW 32,0 1008,1 91 0,51 -
03:49 9,4 8,0 23,0 WSW 26,0 1008,1 91 0,25 -
03:54 9,4 8,0 26,0 WSW 32,0 1008,1 91 0,25 -
03:59 9,3 8,1 34,0 WSW 34,0 1008,1 92 - -
04:04 9,3 8,1 23,0 WSW 29,0 1008,1 92 - -
04:09 9,3 8,1 27,0 WSW 34,0 1008,1 92 - -
04:14 9,3 8,1 21,0 WSW 27,0 1008,1 92 - -
04:19 9,3 8,1 27,0 WSW 27,0 1008,5 92 - -
04:24 9,2 8,0 20,0 WSW 27,0 1008,5 92 - -
04:29 9,2 8,0 23,0 WSW 23,0 1008,5 92 - -
04:34 9,2 8,0 18,0 WSW 21,0 1008,5 92 - -
04:39 9,2 8,0 18,0 WSW 23,0 1008,5 92 - -
04:44 9,2 8,0 23,0 WSW 23,0 1008,8 92 - -
04:49 9,1 7,9 18,0 WSW 23,0 1008,8 92 - -
04:54 9,1 7,7 23,0 WSW 23,0 1008,8 91 - -
04:59 8,9 7,5 21,0 WSW 26,0 1009,1 91 - -
05:04 8,9 7,5 21,0 WSW 21,0 1009,1 91 - -
05:09 8,9 7,5 26,0 WSW 26,0 1009,1 91 - -
05:14 8,9 7,6 18,0 WSW 21,0 1009,1 92 - -
05:19 8,8 7,6 21,0 WSW 24,0 1009,1 92 - -
05:24 8,8 7,6 26,0 WSW 27,0 1009,1 92 - -
05:29 8,8 7,6 27,0 WSW 27,0 1009,5 92 - -
05:34 8,8 7,6 21,0 WSW 26,0 1009,5 92 - -
05:39 8,9 7,7 29,0 WSW 32,0 1009,5 92 - -
05:44 8,9 7,7 24,0 WSW 26,0 1009,8 92 - -
05:49 8,9 7,7 32,0 SW 32,0 1009,8 92 - -
05:54 8,8 7,6 23,0 SW 24,0 1009,8 92 - -
05:59 8,8 7,6 24,0 WSW 29,0 1010,2 92 - -
06:04 8,8 7,6 26,0 WSW 26,0 1010,2 92 - -
06:09 8,9 7,6 21,0 WSW 21,0 1010,2 92 - -
06:14 8,9 7,5 21,0 SW 26,0 1010,2 91 - -
06:19 8,9 7,5 26,0 WSW 26,0 1010,2 91 - -
06:24 8,8 7,4 21,0 WSW 26,0 1010,2 91 - -
06:29 8,9 7,4 24,0 WSW 29,0 1010,5 91 - -
06:34 8,9 7,3 21,0 SW 29,0 1010,5 90 - -
06:39 8,9 7,3 31,0 WSW 31,0 1010,5 90 - -
06:44 8,9 7,3 20,0 WSW 19,0 1010,8 90 - -
06:49 8,9 7,3 23,0 WSW 31,0 1010,8 90 - -
06:54 8,9 7,3 21,0 WSW 21,0 1010,8 90 - -
06:59 8,8 7,2 20,0 WSW 23,0 1011,2 90 - -
07:04 8,8 7,1 24,0 WSW 24,0 1011,2 89 - -
07:09 8,8 7,1 24,0 WSW 24,0 1011,2 89 - -
07:14 8,8 7,1 24,0 WSW 26,0 1011,2 89 - -
07:19 8,8 7,1 24,0 WSW 24,0 1011,2 89 - -
07:24 8,8 7,1 24,0 WSW 26,0 1011,2 89 - -
07:29 8,7 7,0 26,0 WSW 26,0 1011,9 89 - 5
07:34 8,7 7,0 21,0 WSW 23,0 1011,9 89 - 7
07:39 8,7 7,0 26,0 WSW 26,0 1011,9 89 - 9
07:44 8,7 6,8 24,0 WSW 24,0 1012,2 88 - 14
07:49 8,7 6,8 20,0 WSW 24,0 1012,2 88 - 16
07:54 8,7 7,0 21,0 WSW 24,0 1012,2 89 - 35
07:59 8,7 7,0 18,0 SW 24,0 1012,5 89 - 33
08:04 8,7 7,0 26,0 WSW 27,0 1012,5 89 - 40
08:09 8,8 7,1 20,0 WSW 27,0 1012,5 89 - 40
08:14 8,8 7,1 29,0 WSW 29,0 1012,5 89 - 44
08:19 8,8 7,1 21,0 WSW 24,0 1012,5 89 - 62
08:24 8,9 7,2 21,0 WSW 29,0 1012,5 89 - 74
08:29 9,0 7,3 26,0 WSW 26,0 1012,9 89 - 81
08:34 9,2 7,3 24,0 WSW 24,0 1012,9 88 - 84
08:39 9,2 7,3 26,0 WSW 26,0 1012,9 88 - 88
08:44 9,3 7,3 27,0 WSW 27,0 1012,9 88 - 70
08:49 9,3 7,2 32,0 WSW 32,0 1012,9 87 - 97
08:54 9,4 7,3 20,0 SW 31,0 1012,9 87 - 121
08:59 9,5 7,4 31,0 WSW 31,0 1012,9 87 - 125
09:04 9,6 7,5 23,0 WSW 31,0 1012,9 87 - 116
09:09 9,6 7,5 20,0 WSW 31,0 1012,9 87 - 116
09:14 9,6 7,5 16,0 WSW 31,0 1013,2 87 - 134
09:19 9,7 7,6 23,0 WSW 26,0 1013,2 87 - 132
09:24 9,7 7,6 21,0 WSW 21,0 1013,2 87 - 123
09:29 9,7 7,6 24,0 WSW 26,0 1013,6 87 - 123
09:34 9,7 7,6 20,0 WSW 21,0 1013,6 87 - 104
09:39 9,8 7,7 24,0 WSW 24,0 1013,6 87 - 104
09:44 9,8 7,7 18,0 WSW 21,0 1013,9 87 - 111
09:49 9,8 7,7 23,0 WSW 23,0 1013,9 87 - 114
09:54 9,9 7,8 16,0 WSW 18,0 1013,9 87 - 109
09:59 9,9 7,8 23,0 WSW 26,0 1013,9 87 - 109
10:04 9,9 7,8 23,0 WSW 29,0 1013,9 87 - 116
10:09 10,1 8,0 20,0 WSW 19,0 1013,9 87 - 123
10:14 10,1 8,0 29,0 WSW 29,0 1014,2 87 - 130
10:19 10,2 8,1 18,0 WSW 18,0 1014,2 87 - 130
10:24 10,3 8,2 20,0 WSW 19,0 1014,2 87 - 128
10:29 10,4 8,3 24,0 WSW 24,0 1014,6 87 - 125
10:34 10,4 8,3 26,0 WSW 26,0 1014,6 87 - 144
10:39 10,4 8,3 27,0 WSW 27,0 1014,6 87 - 162
10:44 10,6 8,5 20,0 WSW 27,0 1014,6 87 - 163
10:49 10,6 8,5 20,0 WSW 27,0 1014,6 87 - 165
10:54 10,7 8,6 23,0 SW 27,0 1014,6 87 - 188
10:59 10,8 8,7 26,0 WSW 27,0 1014,9 87 - 188
11:04 10,9 8,6 23,0 WSW 27,0 1014,9 86 - 178
11:09 11,1 8,8 24,0 SW 24,0 1014,9 86 - 183
11:14 11,1 8,8 31,0 WSW 31,0 1014,9 86 - 181
11:19 11,1 8,8 32,0 WSW 32,0 1014,9 86 - 207
11:24 11,2 8,9 23,0 WSW 24,0 1014,9 86 - 207
11:29 11,2 8,9 32,0 WSW 32,0 1015,2 86 - 186
11:34 11,3 9,0 27,0 WSW 31,0 1015,2 86 - 160
11:39 11,2 8,9 20,0 WSW 31,0 1015,2 86 - 155
11:44 11,1 8,8 31,0 WSW 31,0 1015,2 86 - 148
11:49 11,1 9,0 18,0 WSW 31,0 1015,2 87 - 153
11:54 11,2 9,1 20,0 WSW 23,0 1015,2 87 - 174
11:59 11,2 9,1 14,0 WSW 24,0 1015,2 87 - 176
12:04 11,3 9,1 18,0 WSW 18,0 1015,2 87 - 171
12:09 11,3 9,0 24,0 WSW 24,0 1015,2 86 - 160
12:14 11,3 9,2 21,0 WSW 24,0 1015,2 87 - 142
12:19 11,4 9,3 20,0 WSW 23,0 1015,2 87 - 171
12:24 11,4 9,5 23,0 West 23,0 1015,2 88 - 172
12:29 11,4 9,5 23,0 WSW 23,0 1015,2 88 - 178
12:34 11,6 9,5 14,0 WSW 23,0 1015,2 87 - 141
12:39 11,6 9,5 23,0 WSW 23,0 1015,2 87 - 172
12:44 11,6 9,5 21,0 WSW 23,0 1015,2 87 - 158
12:49 11,6 9,5 21,0 WSW 23,0 1015,2 87 - 141
12:54 11,6 9,5 16,0 WSW 23,0 1015,2 87 - 113
12:59 11,6 9,5 20,0 WSW 19,0 1015,6 87 - 113
13:04 11,6 9,5 21,0 WSW 21,0 1015,6 87 - 104
13:09 11,6 9,3 20,0 SW 19,0 1015,6 86 - 98
13:14 11,6 9,3 20,0 SW 21,0 1015,6 86 - 97
13:19 11,6 9,3 23,0 WSW 23,0 1015,6 86 - 116
13:24 11,6 9,3 20,0 WSW 23,0 1015,6 86 - 116
13:29 11,6 9,3 21,0 WSW 21,0 1015,6 86 - 104
13:34 11,6 9,3 20,0 WSW 21,0 1015,6 86 - 72
13:39 11,6 9,3 26,0 WSW 26,0 1015,6 86 - 70
13:44 11,6 9,3 23,0 WSW 26,0 1015,6 86 - 76
13:49 11,6 9,3 29,0 WSW 29,0 1015,6 86 - 93
13:54 11,6 9,3 23,0 WSW 26,0 1015,6 86 - 107
13:59 11,6 9,2 21,0 WSW 29,0 1015,6 85 - 105
14:04 11,7 9,3 18,0 WSW 21,0 1015,6 85 - 91
14:09 11,7 9,3 26,0 SW 26,0 1015,6 85 - 76
14:14 11,7 9,3 24,0 WSW 24,0 1015,6 85 - 79
14:19 11,7 9,3 21,0 SW 26,0 1015,6 85 - 79
14:24 11,7 9,3 21,0 WSW 26,0 1015,6 85 - 70
14:29 11,7 9,4 24,0 WSW 24,0 1015,6 86 - 69
14:34 11,6 9,3 26,0 SW 26,0 1015,6 86 - 60
14:39 11,6 9,5 20,0 SW 19,0 1015,6 87 - 54
14:44 11,6 9,7 26,0 WSW 26,0 1015,6 88 - 51
14:49 11,4 9,5 24,0 WSW 24,0 1015,6 88 - 47
14:54 11,4 9,5 20,0 WSW 24,0 1015,6 88 - 46
14:59 11,4 9,7 14,0 WSW 24,0 1015,9 89 0,25 56
15:04 11,4 9,7 14,0 WSW 24,0 1015,9 89 0,25 58
15:09 11,4 9,7 14,0 SW 18,0 1015,9 89 0,25 54
15:14 11,3 9,7 11,0 SW 18,0 1015,9 90 0,25 46
15:19 11,3 9,7 14,0 WSW 16,0 1015,9 90 0,25 39
15:24 11,2 9,6 16,0 WSW 18,0 1015,9 90 0,51 37
15:29 11,2 9,8 10,0 SW 15,0 1015,9 91 0,51 32
15:34 11,2 9,8 18,0 SW 18,0 1015,9 91 0,51 32
15:39 11,2 9,8 13,0 SW 18,0 1015,9 92 0,51 32
15:44 11,1 9,8 13,0 SW 18,0 1015,9 92 0,51 26
15:49 11,1 10,0 11,0 SW 18,0 1015,9 93 0,51 21
15:54 11,1 10,0 13,0 SW 18,0 1015,9 93 0,51 23
15:59 11,1 10,0 13,0 SSW 16,0 1015,9 93 0,51 26
16:04 10,9 10,0 16,0 SW 16,0 1015,6 94 0,51 26
16:09 10,9 10,0 16,0 SW 16,0 1015,6 94 0,51 26
16:14 10,9 10,0 14,0 SSW 16,0 1015,6 94 0,51 23
16:19 10,9 10,1 20,0 SW 19,0 1015,6 95 0,51 21
16:24 10,9 10,1 18,0 SW 18,0 1015,6 95 0,51 19
16:29 10,9 10,1 14,0 SW 19,0 1015,6 95 0,51 14
16:34 10,8 10,0 14,0 SW 15,0 1015,6 95 0,51 12
16:39 10,8 10,0 14,0 SW 19,0 1015,6 95 0,51 9
16:44 10,8 10,2 10,0 SW 11,0 1015,6 96 0,51 7
16:49 10,8 10,2 20,0 SW 19,0 1015,6 96 0,51 7
16:54 10,7 10,1 16,0 SW 16,0 1015,6 96 0,51 5
16:59 10,7 10,1 16,0 SW 19,0 1015,6 96 0,51 -
17:04 10,7 10,1 16,0 SW 16,0 1015,6 96 0,51 -
17:09 10,7 10,1 14,0 SSW 16,0 1015,6 96 0,51 -
17:14 10,7 10,1 14,0 SW 16,0 1015,6 96 0,51 -
17:19 10,7 10,1 14,0 SW 16,0 1015,6 96 0,51 -
17:24 10,7 10,1 20,0 SW 19,0 1015,6 96 0,51 -
17:29 10,7 10,1 16,0 SW 19,0 1015,6 96 0,51 -
17:34 10,7 9,9 16,0 SW 16,0 1015,2 95 0,51 -
17:39 10,6 9,8 14,0 SW 19,0 1015,2 95 0,51 -
17:44 10,6 9,8 13,0 SW 16,0 1015,6 95 0,51 -
17:49 10,7 9,9 16,0 SW 16,0 1015,6 95 0,51 -
17:54 10,7 9,9 16,0 SW 18,0 1015,6 95 0,25 -
17:59 10,7 9,9 18,0 SW 19,0 1015,6 95 0,25 -
18:04 10,7 9,9 20,0 SW 19,0 1015,2 95 0,51 -
18:09 10,7 9,9 18,0 SW 19,0 1015,2 95 0,51 -
18:14 10,7 9,9 18,0 SW 19,0 1015,2 95 0,51 -
18:19 10,7 9,9 16,0 SSW 19,0 1014,9 95 0,51 -
18:24 10,7 9,9 14,0 SW 19,0 1014,9 95 0,51 -
18:29 10,7 9,9 21,0 SSW 21,0 1014,9 95 0,25 -
18:34 10,7 9,9 20,0 SW 19,0 1014,9 95 0,25 -
18:39 10,7 9,9 14,0 SW 21,0 1014,9 95 0,25 -
18:44 10,7 9,9 16,0 SW 16,0 1014,9 95 0,25 -
18:49 10,7 9,9 26,0 SW 26,0 1014,9 95 0,51 -
18:54 10,8 10,0 20,0 SW 26,0 1014,9 95 0,51 -
18:59 10,8 10,0 27,0 SW 27,0 1014,9 95 0,51 -
19:04 10,8 10,0 20,0 SW 19,0 1014,9 95 0,51 -
19:09 10,8 10,0 21,0 SW 27,0 1014,9 95 0,51 -
19:14 10,8 10,0 20,0 SW 21,0 1014,9 95 0,51 -
19:19 10,7 10,1 18,0 SW 21,0 1014,9 96 0,76 -
19:24 10,7 10,1 23,0 SW 23,0 1014,9 96 0,76 -
19:29 10,7 10,1 23,0 SW 23,0 1014,9 96 1,02 -
19:34 10,7 10,1 26,0 SW 26,0 1014,9 96 1,02 -
19:39 10,7 10,1 21,0 SW 31,0 1014,9 96 1,27 -
19:44 10,7 10,1 21,0 SW 26,0 1014,9 96 1,27 -
19:49 10,7 10,1 27,0 SW 27,0 1014,9 96 1,52 -
19:54 10,7 10,1 20,0 SW 21,0 1014,9 96 1,52 -
19:59 10,7 10,1 24,0 SW 24,0 1014,9 96 1,52 -

Download your copy of this data-set  here

You find our weather info also at:

Het Weer Aktueel

WOW Nederland KNMI

Vereniging voor Weerkunde en Klimatologie

UK Met Office Weather Observation Website (WOW)

WeatherCloud

Weather Underground

Awekas

MeteoMap.Cloud

HAMweather, WeatherForYou, PWS Weather

Citizen Weather Observer Program (CWOP)

Equipment we use:

Hardware supplier
Weerhuisje

Weather-station
Vantage Pro2+ UV

WeatherServer's
alix3d2 & wl330n

WeatherProgram's
Smartbedded

Satellite NOAA's
WRX137 & KX137

Satellite Eumetsat
Ayecka SR1 & Triax

Lightning detector
Boltek StormTracker

Provider
F-Service

Weerhuisje

Vantage Pro2+ UV

alix3d2 & wl330n

Smartbedded

WRX137 & KX137

Ayecka SR1 & Triax

Boltek StormTracker

F-Service